Belle Isle, Mississippi
Current Conditions -  °F | °C
As of 8:50 AM on Monday 24 Nov 2014 (Local Time) from KHSA Reporting Station
Scattered Clouds Scattered Clouds  
Wind Chill: 70°   Ceiling: Unl
Heat Index: 70°   Visibility: 7mi
Dew Point: 61°   Wind: 8mph
Humidity: 73%   Direction: 310°NW
Pressure: 29.86"   Gusts: NA
Location:  30.2285°N, 89.5997°W
Report Text: KHSA 241450Z 31007KT 7SM SCT012 21/16 A2986
Loading
Personal Weather Stations






























Interactive Weather Map New forecast layout! Learn more

10-Day Weather Forecast

Advertisements
Track Severe Weather on mobile